createdAt,value
2022-11-09T00:00:21.542Z,94810.97
2022-11-09T00:03:30.112Z,94806.53
2022-11-09T00:06:39.034Z,94800.16
2022-11-09T00:09:48.987Z,94797.88
2022-11-09T00:12:57.742Z,94799.22
2022-11-09T00:16:11.585Z,94803.31
2022-11-09T00:19:20.025Z,94797.72
2022-11-09T00:22:28.985Z,94795.47
2022-11-09T00:25:38.761Z,94798.97
2022-11-09T00:28:47.368Z,94798.38
2022-11-09T00:31:56.035Z,94797.59
2022-11-09T00:35:05.177Z,94796.66
2022-11-09T00:38:13.542Z,94792.03
2022-11-09T00:41:24.452Z,94800.13
2022-11-09T00:44:33.340Z,94795.88
2022-11-09T00:47:41.815Z,94793.03
2022-11-09T00:50:53.473Z,94791.25
2022-11-09T00:54:01.813Z,94802.16
2022-11-09T00:57:14.434Z,94795.53
2022-11-09T01:00:26.484Z,94793.91
2022-11-09T01:03:35.204Z,94786.00
2022-11-09T01:06:43.773Z,94792.41
2022-11-09T01:09:52.501Z,94797.16
2022-11-09T01:13:02.316Z,94787.28
2022-11-09T01:16:16.006Z,94795.00
2022-11-09T01:19:24.265Z,94786.63
2022-11-09T01:22:34.655Z,94794.72
2022-11-09T01:25:43.742Z,94784.34
2022-11-09T01:28:53.589Z,94783.84
2022-11-09T01:32:02.109Z,94785.50
2022-11-09T01:35:12.831Z,94780.38
2022-11-09T01:38:21.303Z,94781.78
2022-11-09T01:41:30.485Z,94784.31
2022-11-09T01:44:40.682Z,94775.78
2022-11-09T01:47:54.246Z,94782.34
2022-11-09T01:51:10.260Z,94782.88
2022-11-09T01:54:26.000Z,94776.97
2022-11-09T01:57:46.478Z,94771.03
2022-11-09T02:01:00.732Z,94770.56
2022-11-09T02:04:29.327Z,94773.88
2022-11-09T02:07:39.830Z,94780.28
2022-11-09T02:10:58.885Z,94776.50
2022-11-09T02:14:09.088Z,94776.16
2022-11-09T02:17:20.322Z,94773.06
2022-11-09T02:20:30.149Z,94770.56
2022-11-09T02:23:40.747Z,94770.88
2022-11-09T02:26:52.310Z,94767.28
2022-11-09T02:30:02.457Z,94762.66
2022-11-09T02:33:11.945Z,94767.28
2022-11-09T02:36:21.934Z,94761.16
2022-11-09T02:39:30.849Z,94764.94
2022-11-09T02:42:40.432Z,94765.28
2022-11-09T02:45:48.792Z,94768.78
2022-11-09T02:48:57.836Z,94769.25
2022-11-09T02:52:07.974Z,94764.50
2022-11-09T02:55:17.645Z,94765.97
2022-11-09T02:58:26.288Z,94759.06
2022-11-09T03:01:35.307Z,94766.78
2022-11-09T03:04:43.678Z,94760.06
2022-11-09T03:07:53.566Z,94771.72
2022-11-09T03:11:03.359Z,94781.44
2022-11-09T03:14:12.354Z,94776.84
2022-11-09T03:17:27.971Z,94773.69
2022-11-09T03:20:36.329Z,94772.88
2022-11-09T03:23:46.272Z,94773.69
2022-11-09T03:26:54.943Z,94768.13
2022-11-09T03:30:03.427Z,94768.28
2022-11-09T03:33:14.283Z,94761.03
2022-11-09T03:36:23.451Z,94763.00
2022-11-09T03:39:33.620Z,94773.53
2022-11-09T03:42:46.059Z,94769.75
2022-11-09T03:45:54.699Z,94766.63
2022-11-09T03:49:03.151Z,94778.13
2022-11-09T03:52:11.399Z,94773.06
2022-11-09T03:55:21.818Z,94762.34
2022-11-09T03:58:30.362Z,94761.50
2022-11-09T04:01:38.728Z,94764.34
2022-11-09T04:04:47.051Z,94765.78
2022-11-09T04:07:57.652Z,94763.00
2022-11-09T04:11:07.538Z,94769.91
2022-11-09T04:14:15.739Z,94767.09
2022-11-09T04:17:24.000Z,94765.94
2022-11-09T04:20:33.450Z,94757.66
2022-11-09T04:23:41.668Z,94765.28
2022-11-09T04:26:51.256Z,94755.72
2022-11-09T04:30:00.726Z,94762.28
2022-11-09T04:33:08.908Z,94753.41
2022-11-09T04:36:17.356Z,94755.03
2022-11-09T04:39:25.599Z,94763.94
2022-11-09T04:42:35.194Z,94756.38
2022-11-09T04:45:44.222Z,94761.44
2022-11-09T04:48:52.491Z,94767.88
2022-11-09T04:52:00.682Z,94774.16
2022-11-09T04:55:10.082Z,94770.84
2022-11-09T04:58:24.683Z,94765.94
2022-11-09T05:01:33.220Z,94774.16
2022-11-09T05:04:41.539Z,94771.50
2022-11-09T05:07:49.793Z,94776.47
2022-11-09T05:10:58.686Z,94777.59
2022-11-09T05:14:08.345Z,94767.06
2022-11-09T05:17:16.781Z,94768.56
2022-11-09T05:20:25.864Z,94773.81
2022-11-09T05:23:51.752Z,94777.44
2022-11-09T05:27:01.213Z,94779.56
2022-11-09T05:30:13.028Z,94778.75
2022-11-09T05:33:21.719Z,94777.44
2022-11-09T05:36:33.471Z,94779.25
2022-11-09T05:39:41.678Z,94781.06
2022-11-09T05:42:50.070Z,94768.38
2022-11-09T05:46:03.926Z,94767.25
2022-11-09T05:49:15.727Z,94767.56
2022-11-09T05:52:23.919Z,94774.16
2022-11-09T05:55:32.255Z,94777.28
2022-11-09T05:58:42.006Z,94781.41
2022-11-09T06:01:51.733Z,94779.13
2022-11-09T06:05:00.130Z,94780.44
2022-11-09T06:08:11.841Z,94786.69
2022-11-09T06:11:24.005Z,94787.69
2022-11-09T06:14:32.692Z,94782.09
2022-11-09T06:17:42.268Z,94783.75
2022-11-09T06:20:53.822Z,94791.50
2022-11-09T06:24:02.019Z,94798.56
2022-11-09T06:27:10.425Z,94802.50
2022-11-09T06:30:18.767Z,94807.94
2022-11-09T06:33:31.714Z,94808.72
2022-11-09T06:36:39.902Z,94817.94
2022-11-09T06:39:48.366Z,94817.56
2022-11-09T06:42:59.486Z,94815.25
2022-11-09T06:46:08.023Z,94819.13
2022-11-09T06:49:17.599Z,94826.47
2022-11-09T06:52:26.054Z,94816.31
2022-11-09T06:55:36.521Z,94825.22
2022-11-09T06:58:44.842Z,94831.31
2022-11-09T07:01:57.556Z,94819.41
2022-11-09T07:05:10.518Z,94833.56
2022-11-09T07:08:20.285Z,94833.84
2022-11-09T07:11:28.475Z,94844.56
2022-11-09T07:14:37.854Z,94886.53
2022-11-09T07:17:46.091Z,94897.28
2022-11-09T07:20:55.633Z,94910.53
2022-11-09T07:24:03.900Z,94923.00
2022-11-09T07:27:12.038Z,94930.78
2022-11-09T07:30:20.749Z,94936.63
2022-11-09T07:33:30.474Z,94945.03
2022-11-09T07:36:40.376Z,94955.09
2022-11-09T07:39:48.692Z,94951.63
2022-11-09T07:43:00.360Z,94943.50
2022-11-09T07:46:08.869Z,94960.66
2022-11-09T07:49:18.499Z,94954.09
2022-11-09T07:52:28.447Z,94932.41
2022-11-09T07:55:37.962Z,94924.47
2022-11-09T07:58:46.263Z,94926.91
2022-11-09T08:01:54.696Z,94918.84
2022-11-09T08:05:03.182Z,94916.38
2022-11-09T08:08:15.623Z,94923.09
2022-11-09T08:11:24.111Z,94930.09
2022-11-09T08:14:33.686Z,94927.09
2022-11-09T08:17:42.113Z,94928.69
2022-11-09T08:20:51.131Z,94924.13
2022-11-09T08:24:01.516Z,94929.09
2022-11-09T08:27:10.782Z,94927.09
2022-11-09T08:30:21.713Z,94929.72
2022-11-09T08:33:34.857Z,94932.59
2022-11-09T08:36:43.099Z,94933.69
2022-11-09T08:39:52.982Z,94942.91
2022-11-09T08:43:06.932Z,94938.38
2022-11-09T08:46:16.145Z,94943.94
2022-11-09T08:49:27.225Z,94947.34
2022-11-09T08:52:35.879Z,94938.72
2022-11-09T08:55:50.299Z,94944.81
2022-11-09T08:58:58.610Z,94954.66
2022-11-09T09:02:07.931Z,94953.91
2022-11-09T09:05:17.084Z,94952.97
2022-11-09T09:08:25.927Z,94958.22
2022-11-09T09:11:35.782Z,94967.22
2022-11-09T09:14:43.967Z,94949.91
2022-11-09T09:17:52.192Z,94956.84
2022-11-09T09:21:00.404Z,94958.38
2022-11-09T09:24:09.340Z,94959.09
2022-11-09T09:27:19.018Z,94959.09
2022-11-09T09:30:27.323Z,94968.25
2022-11-09T09:33:37.148Z,94966.44
2022-11-09T09:36:48.304Z,94976.88
2022-11-09T09:39:57.874Z,94972.38
2022-11-09T09:43:07.680Z,94965.19
2022-11-09T09:46:25.977Z,94969.63
2022-11-09T09:49:40.948Z,94964.75
2022-11-09T09:53:23.180Z,94958.69
2022-11-09T09:56:31.613Z,94963.81
2022-11-09T09:59:45.701Z,94951.84
2022-11-09T10:02:55.775Z,94950.47
2022-11-09T10:06:37.677Z,94948.75
2022-11-09T10:10:22.246Z,94956.91
2022-11-09T10:14:03.550Z,94947.41
2022-11-09T10:17:30.392Z,94940.94
2022-11-09T10:21:28.719Z,94949.72
2022-11-09T10:28:19.038Z,94939.72
2022-11-09T10:31:34.566Z,94925.97
2022-11-09T10:34:56.379Z,94928.84
2022-11-09T10:38:05.110Z,94929.97
2022-11-09T10:41:29.275Z,94927.88
2022-11-09T10:44:56.022Z,94923.84
2022-11-09T10:48:34.481Z,94920.81
2022-11-09T10:52:03.874Z,94915.47
2022-11-09T10:55:32.399Z,94906.44
2022-11-09T10:58:59.252Z,94906.72
2022-11-09T11:02:46.920Z,94906.84
2022-11-09T11:06:26.750Z,94908.50
2022-11-09T11:09:55.392Z,94903.63
2022-11-09T11:13:25.895Z,94892.28
2022-11-09T11:16:53.766Z,94884.06
2022-11-09T11:20:32.459Z,94881.34
2022-11-09T11:24:16.092Z,94886.50
2022-11-09T11:27:51.915Z,94881.44
2022-11-09T11:31:21.856Z,94878.66
2022-11-09T11:35:05.280Z,94877.97
2022-11-09T11:38:39.092Z,94867.56
2022-11-09T11:42:40.151Z,94851.53
2022-11-09T11:46:19.933Z,94863.53
2022-11-09T11:50:23.438Z,94863.16
2022-11-09T11:54:08.895Z,94861.13
2022-11-09T11:57:47.276Z,94872.78
2022-11-09T12:01:36.392Z,94865.13
2022-11-09T12:05:52.571Z,94860.41
2022-11-09T12:09:41.256Z,94854.38
2022-11-09T12:13:21.612Z,94853.97
2022-11-09T12:17:01.941Z,94848.25
2022-11-09T12:20:38.013Z,94840.06
2022-11-09T12:24:22.817Z,94838.69
2022-11-09T12:28:13.886Z,94847.09
2022-11-09T12:32:06.553Z,94835.38
2022-11-09T12:35:41.823Z,94828.69
2022-11-09T12:39:20.436Z,94833.19
2022-11-09T12:42:55.765Z,94830.34
2022-11-09T12:46:35.096Z,94833.25
2022-11-09T12:50:05.615Z,94826.72
2022-11-09T12:53:36.582Z,94825.38
2022-11-09T12:57:08.375Z,94826.97
2022-11-09T13:00:51.412Z,94826.97
2022-11-09T13:04:22.014Z,94830.22
2022-11-09T13:07:53.225Z,94822.59
2022-11-09T13:11:26.992Z,94817.88
2022-11-09T13:14:54.852Z,94820.84
2022-11-09T13:18:47.075Z,94810.84
2022-11-09T13:23:01.260Z,94817.69
2022-11-09T13:26:59.849Z,94811.72
2022-11-09T13:30:50.843Z,94807.72
2022-11-09T13:34:55.389Z,94802.63
2022-11-09T13:38:25.014Z,94802.84
2022-11-09T13:41:51.788Z,94805.16
2022-11-09T13:45:28.829Z,94802.75
2022-11-09T13:48:56.387Z,94806.19
2022-11-09T13:52:50.713Z,94806.53
2022-11-09T13:56:28.817Z,94811.41
2022-11-09T14:00:00.065Z,94813.03
2022-11-09T14:03:29.098Z,94815.38
2022-11-09T14:07:06.791Z,94816.94
2022-11-09T14:11:05.484Z,94820.47
2022-11-09T14:15:14.286Z,94829.66
2022-11-09T14:18:54.718Z,94835.16
2022-11-09T14:22:21.881Z,94830.38
2022-11-09T14:25:50.111Z,94831.50
2022-11-09T14:29:24.555Z,94829.28
2022-11-09T14:32:55.753Z,94828.44
2022-11-09T14:36:22.871Z,94825.22
2022-11-09T14:39:53.147Z,94824.78
2022-11-09T14:43:29.345Z,94822.31
2022-11-09T14:46:57.967Z,94819.53
2022-11-09T14:50:28.690Z,94818.47
2022-11-09T14:53:57.214Z,94823.03
2022-11-09T14:57:25.624Z,94825.47
2022-11-09T15:01:10.314Z,94828.25
2022-11-09T15:04:57.873Z,94844.72
2022-11-09T15:08:26.874Z,94839.50
2022-11-09T15:11:54.499Z,94844.19
2022-11-09T15:15:26.689Z,94844.09
2022-11-09T15:18:53.597Z,94843.34
2022-11-09T15:22:53.932Z,94842.59
2022-11-09T15:26:41.535Z,94841.38
2022-11-09T15:30:36.301Z,94851.00
2022-11-09T15:34:03.470Z,94855.41
2022-11-09T15:37:48.056Z,94855.34
2022-11-09T15:41:19.011Z,94850.72
2022-11-09T15:44:47.894Z,94855.34
2022-11-09T15:48:14.826Z,94855.19
2022-11-09T15:51:41.545Z,94864.72
2022-11-09T15:55:10.532Z,94860.25
2022-11-09T15:58:37.579Z,94861.94
2022-11-09T16:02:06.136Z,94867.84
2022-11-09T16:05:33.368Z,94864.78
2022-11-09T16:09:00.256Z,94876.72
2022-11-09T16:12:27.209Z,94882.09
2022-11-09T16:15:54.268Z,94891.16
2022-11-09T16:19:22.515Z,94894.66
2022-11-09T16:22:49.792Z,94904.50
2022-11-09T16:26:19.404Z,94907.41
2022-11-09T16:29:46.087Z,94899.00
2022-11-09T16:33:12.797Z,94895.50
2022-11-09T16:36:47.924Z,94904.94
2022-11-09T16:40:18.421Z,94906.16
2022-11-09T16:43:48.461Z,94915.22
2022-11-09T16:47:19.977Z,94921.13
2022-11-09T16:50:48.684Z,94915.00
2022-11-09T16:54:17.985Z,94926.91
2022-11-09T16:57:46.162Z,94931.84
2022-11-09T17:01:14.656Z,94942.50
2022-11-09T17:04:44.471Z,94941.69
2022-11-09T17:08:12.527Z,94946.19
2022-11-09T17:11:41.093Z,94951.50
2022-11-09T17:15:10.082Z,94963.00
2022-11-09T17:18:38.677Z,94972.84
2022-11-09T17:22:05.883Z,94970.38
2022-11-09T17:25:33.602Z,94968.31
2022-11-09T17:29:01.870Z,94974.03
2022-11-09T17:32:29.356Z,94973.03
2022-11-09T17:36:04.009Z,94987.38
2022-11-09T17:39:30.638Z,94988.00
2022-11-09T17:42:57.759Z,94997.97
2022-11-09T17:46:26.311Z,94992.78
2022-11-09T17:49:53.873Z,94994.84
2022-11-09T17:53:21.646Z,95005.72
2022-11-09T17:56:48.716Z,95012.50
2022-11-09T18:00:18.714Z,95014.06
2022-11-09T18:03:47.531Z,95015.53
2022-11-09T18:07:15.795Z,95024.84
2022-11-09T18:10:45.643Z,95041.41
2022-11-09T18:14:12.571Z,95044.44
2022-11-09T18:17:39.646Z,95041.41
2022-11-09T18:21:09.790Z,95045.56
2022-11-09T18:24:37.367Z,95050.28
2022-11-09T18:28:05.481Z,95055.88
2022-11-09T18:31:35.827Z,95061.66
2022-11-09T18:35:02.741Z,95061.69
2022-11-09T18:38:32.200Z,95061.31
2022-11-09T18:42:02.144Z,95067.09
2022-11-09T18:45:29.806Z,95064.31
2022-11-09T18:48:57.615Z,95069.44
2022-11-09T18:52:24.899Z,95069.44
2022-11-09T18:55:53.734Z,95069.25
2022-11-09T18:59:20.921Z,95077.25
2022-11-09T19:02:47.943Z,95073.97
2022-11-09T19:06:20.940Z,95075.81
2022-11-09T19:09:49.774Z,95073.75
2022-11-09T19:13:21.473Z,95080.09
2022-11-09T19:16:48.637Z,95082.59
2022-11-09T19:20:16.064Z,95081.97
2022-11-09T19:23:43.459Z,95084.00
2022-11-09T19:27:11.127Z,95092.44
2022-11-09T19:30:39.656Z,95091.78
2022-11-09T19:39:42.668Z,95099.19
2022-11-09T19:43:10.448Z,95102.47
2022-11-09T19:46:40.258Z,95099.59
2022-11-09T19:50:09.309Z,95115.00
2022-11-09T19:53:42.009Z,95121.94
2022-11-09T19:57:09.989Z,95114.34
2022-11-09T20:00:38.400Z,95122.97
2022-11-09T20:04:10.225Z,95123.75
2022-11-09T20:07:37.638Z,95118.97
2022-11-09T20:11:09.918Z,95128.81
2022-11-09T20:14:37.008Z,95129.47
2022-11-09T20:18:04.366Z,95133.97
2022-11-09T20:21:33.295Z,95127.44
2022-11-09T20:25:00.099Z,95133.97
2022-11-09T20:28:27.291Z,95136.63
2022-11-09T20:31:54.363Z,95145.00
2022-11-09T20:35:21.365Z,95147.72
2022-11-09T20:38:49.717Z,95143.25
2022-11-09T20:42:17.083Z,95147.94
2022-11-09T20:45:44.109Z,95146.91
2022-11-09T20:49:12.059Z,95162.28
2022-11-09T20:52:39.480Z,95154.31
2022-11-09T20:56:09.013Z,95159.81
2022-11-09T20:59:35.893Z,95158.22
2022-11-09T21:03:03.104Z,95164.34
2022-11-09T21:06:30.111Z,95166.59
2022-11-09T21:09:59.430Z,95169.09
2022-11-09T21:13:28.632Z,95168.63
2022-11-09T21:16:55.740Z,95178.88
2022-11-09T21:20:22.572Z,95182.41
2022-11-09T21:24:07.726Z,95186.47
2022-11-09T21:27:52.023Z,95187.09
2022-11-09T21:31:20.203Z,95194.25
2022-11-09T21:34:48.401Z,95188.47
2022-11-09T21:38:15.740Z,95197.47
2022-11-09T21:41:43.064Z,95194.22
2022-11-09T21:45:10.517Z,95206.75
2022-11-09T21:48:39.051Z,95206.97
2022-11-09T21:52:06.883Z,95209.56
2022-11-09T21:55:33.824Z,95211.84
2022-11-09T21:59:01.171Z,95220.38
2022-11-09T22:02:28.147Z,95218.31
2022-11-09T22:05:56.439Z,95230.84
2022-11-09T22:09:23.092Z,95228.72
2022-11-09T22:13:07.554Z,95230.03
2022-11-09T22:16:35.933Z,95228.31
2022-11-09T22:20:19.896Z,95231.78
2022-11-09T22:23:48.251Z,95237.09
2022-11-09T22:27:15.421Z,95249.00
2022-11-09T22:30:42.130Z,95249.41
2022-11-09T22:34:08.886Z,95259.25
2022-11-09T22:37:36.202Z,95257.56
2022-11-09T22:41:07.976Z,95261.44
2022-11-09T22:44:34.694Z,95270.78
2022-11-09T22:48:01.303Z,95271.84
2022-11-09T22:51:28.142Z,95268.81
2022-11-09T22:54:54.923Z,95265.28
2022-11-09T22:58:24.273Z,95278.72
2022-11-09T23:01:51.561Z,95276.47
2022-11-09T23:05:18.294Z,95281.88
2022-11-09T23:08:44.995Z,95284.09
2022-11-09T23:12:11.760Z,95292.31
2022-11-09T23:15:39.771Z,95288.97
2022-11-09T23:19:06.807Z,95291.22
2022-11-09T23:22:35.197Z,95292.41
2022-11-09T23:26:03.218Z,95297.09
2022-11-09T23:29:30.160Z,95298.75
2022-11-09T23:33:02.063Z,95300.81
2022-11-09T23:36:28.941Z,95308.28
2022-11-09T23:39:55.736Z,95316.38
2022-11-09T23:43:22.770Z,95308.78
2022-11-09T23:46:49.744Z,95308.34
2022-11-09T23:50:18.370Z,95315.03
2022-11-09T23:53:45.254Z,95318.75
2022-11-09T23:57:12.168Z,95311.19
